sensor_id;sensor_type;location;lat;lon;timestamp;P1;durP1;ratioP1;P2;durP2;ratioP2
13985;SDS011;7067;51.832;8.296;2023-04-01T00:02:16;3.70;;;0.68;;
13985;SDS011;7067;51.832;8.296;2023-04-01T00:04:41;4.30;;;0.98;;
13985;SDS011;7067;51.832;8.296;2023-04-01T00:07:08;4.45;;;1.48;;
13985;SDS011;7067;51.832;8.296;2023-04-01T00:09:33;1.70;;;0.88;;
13985;SDS011;7067;51.832;8.296;2023-04-01T00:12:00;3.22;;;0.68;;
13985;SDS011;7067;51.832;8.296;2023-04-01T00:14:25;1.85;;;1.13;;
13985;SDS011;7067;51.832;8.296;2023-04-01T00:16:51;6.97;;;1.55;;
13985;SDS011;7067;51.832;8.296;2023-04-01T00:19:17;3.33;;;1.15;;
13985;SDS011;7067;51.832;8.296;2023-04-01T00:21:42;2.63;;;0.75;;
13985;SDS011;7067;51.832;8.296;2023-04-01T00:24:08;13.43;;;1.45;;
13985;SDS011;7067;51.832;8.296;2023-04-01T00:26:33;21.42;;;2.15;;
13985;SDS011;7067;51.832;8.296;2023-04-01T00:28:58;30.85;;;2.05;;
13985;SDS011;7067;51.832;8.296;2023-04-01T00:31:24;1.85;;;0.50;;
13985;SDS011;7067;51.832;8.296;2023-04-01T00:33:50;5.00;;;1.38;;
13985;SDS011;7067;51.832;8.296;2023-04-01T00:36:17;1.95;;;0.80;;
13985;SDS011;7067;51.832;8.296;2023-04-01T00:38:44;4.13;;;0.70;;
13985;SDS011;7067;51.832;8.296;2023-04-01T00:41:10;2.53;;;0.50;;
13985;SDS011;7067;51.832;8.296;2023-04-01T00:43:39;4.30;;;1.15;;
13985;SDS011;7067;51.832;8.296;2023-04-01T00:46:05;2.33;;;0.40;;
13985;SDS011;7067;51.832;8.296;2023-04-01T00:48:33;3.47;;;0.70;;
13985;SDS011;7067;51.832;8.296;2023-04-01T00:53:31;39.70;;;2.67;;
13985;SDS011;7067;51.832;8.296;2023-04-01T00:56:09;5.95;;;2.08;;
13985;SDS011;7067;51.832;8.296;2023-04-01T00:58:38;2.13;;;0.50;;
13985;SDS011;7067;51.832;8.296;2023-04-01T01:01:06;3.03;;;0.80;;
13985;SDS011;7067;51.832;8.296;2023-04-01T01:03:33;2.15;;;0.50;;
13985;SDS011;7067;51.832;8.296;2023-04-01T01:11:12;2.97;;;0.88;;
13985;SDS011;7067;51.832;8.296;2023-04-01T01:13:43;1.33;;;0.40;;
13985;SDS011;7067;51.832;8.296;2023-04-01T01:16:19;48.75;;;7.28;;
13985;SDS011;7067;51.832;8.296;2023-04-01T01:18:53;6.15;;;1.13;;
13985;SDS011;7067;51.832;8.296;2023-04-01T01:23:56;1.10;;;0.52;;
13985;SDS011;7067;51.832;8.296;2023-04-01T01:26:37;1.70;;;0.38;;
13985;SDS011;7067;51.832;8.296;2023-04-01T01:36:48;2.58;;;1.00;;
13985;SDS011;7067;51.832;8.296;2023-04-01T01:39:18;1.38;;;0.80;;
13985;SDS011;7067;51.832;8.296;2023-04-01T01:41:45;7.60;;;1.50;;
13985;SDS011;7067;51.832;8.296;2023-04-01T01:44:14;1.58;;;0.65;;
13985;SDS011;7067;51.832;8.296;2023-04-01T01:46:40;1.73;;;0.50;;
13985;SDS011;7067;51.832;8.296;2023-04-01T01:49:06;6.82;;;1.65;;
13985;SDS011;7067;51.832;8.296;2023-04-01T01:51:32;7.80;;;1.17;;
13985;SDS011;7067;51.832;8.296;2023-04-01T01:53:57;2.05;;;0.30;;
13985;SDS011;7067;51.832;8.296;2023-04-01T01:56:23;1.77;;;0.85;;
13985;SDS011;7067;51.832;8.296;2023-04-01T01:58:52;0.98;;;0.20;;
13985;SDS011;7067;51.832;8.296;2023-04-01T02:01:23;3.22;;;0.30;;
13985;SDS011;7067;51.832;8.296;2023-04-01T02:03:50;3.28;;;0.77;;
13985;SDS011;7067;51.832;8.296;2023-04-01T02:06:17;2.75;;;0.68;;
13985;SDS011;7067;51.832;8.296;2023-04-01T02:08:45;6.25;;;1.15;;
13985;SDS011;7067;51.832;8.296;2023-04-01T02:11:15;1.80;;;0.40;;
13985;SDS011;7067;51.832;8.296;2023-04-01T02:16:16;0.57;;;0.20;;
13985;SDS011;7067;51.832;8.296;2023-04-01T02:18:47;1.88;;;0.60;;
13985;SDS011;7067;51.832;8.296;2023-04-01T02:21:14;2.30;;;0.60;;
13985;SDS011;7067;51.832;8.296;2023-04-01T02:23:40;1.45;;;0.68;;
13985;SDS011;7067;51.832;8.296;2023-04-01T02:26:06;0.98;;;0.60;;
13985;SDS011;7067;51.832;8.296;2023-04-01T02:28:32;8.48;;;0.95;;
13985;SDS011;7067;51.832;8.296;2023-04-01T02:30:58;5.88;;;1.27;;
13985;SDS011;7067;51.832;8.296;2023-04-01T02:33:25;1.08;;;0.32;;
13985;SDS011;7067;51.832;8.296;2023-04-01T02:35:52;2.58;;;1.95;;
13985;SDS011;7067;51.832;8.296;2023-04-01T02:38:17;1.40;;;0.20;;
13985;SDS011;7067;51.832;8.296;2023-04-01T02:40:44;5.22;;;0.95;;
13985;SDS011;7067;51.832;8.296;2023-04-01T02:43:15;1.60;;;0.32;;
13985;SDS011;7067;51.832;8.296;2023-04-01T02:45:41;1.48;;;0.65;;
13985;SDS011;7067;51.832;8.296;2023-04-01T02:48:07;8.10;;;2.13;;
13985;SDS011;7067;51.832;8.296;2023-04-01T02:50:32;0.65;;;0.20;;
13985;SDS011;7067;51.832;8.296;2023-04-01T02:52:58;11.70;;;1.10;;
13985;SDS011;7067;51.832;8.296;2023-04-01T02:55:23;3.75;;;0.77;;
13985;SDS011;7067;51.832;8.296;2023-04-01T02:57:48;2.20;;;0.55;;
13985;SDS011;7067;51.832;8.296;2023-04-01T03:00:14;3.30;;;1.08;;
13985;SDS011;7067;51.832;8.296;2023-04-01T03:02:40;4.03;;;0.70;;
13985;SDS011;7067;51.832;8.296;2023-04-01T03:05:07;1.88;;;0.30;;
13985;SDS011;7067;51.832;8.296;2023-04-01T03:07:33;2.63;;;0.30;;
13985;SDS011;7067;51.832;8.296;2023-04-01T03:09:58;1.38;;;0.50;;
13985;SDS011;7067;51.832;8.296;2023-04-01T03:12:23;0.85;;;0.20;;
13985;SDS011;7067;51.832;8.296;2023-04-01T03:14:49;1.65;;;0.82;;
13985;SDS011;7067;51.832;8.296;2023-04-01T03:17:14;10.95;;;1.75;;
13985;SDS011;7067;51.832;8.296;2023-04-01T03:19:39;14.05;;;1.05;;
13985;SDS011;7067;51.832;8.296;2023-04-01T03:22:05;2.55;;;0.77;;
13985;SDS011;7067;51.832;8.296;2023-04-01T03:24:30;4.18;;;0.20;;
13985;SDS011;7067;51.832;8.296;2023-04-01T03:26:56;3.45;;;1.30;;
13985;SDS011;7067;51.832;8.296;2023-04-01T03:29:21;3.60;;;1.38;;
13985;SDS011;7067;51.832;8.296;2023-04-01T03:31:46;1.98;;;0.40;;
13985;SDS011;7067;51.832;8.296;2023-04-01T03:34:12;1.55;;;1.08;;
13985;SDS011;7067;51.832;8.296;2023-04-01T03:36:37;0.45;;;0.35;;
13985;SDS011;7067;51.832;8.296;2023-04-01T03:39:02;19.48;;;1.45;;
13985;SDS011;7067;51.832;8.296;2023-04-01T03:41:28;1.85;;;0.22;;
13985;SDS011;7067;51.832;8.296;2023-04-01T03:43:54;1.52;;;0.30;;
13985;SDS011;7067;51.832;8.296;2023-04-01T03:46:19;0.98;;;0.32;;
13985;SDS011;7067;51.832;8.296;2023-04-01T03:48:45;1.38;;;0.20;;
13985;SDS011;7067;51.832;8.296;2023-04-01T03:51:10;2.35;;;0.75;;
13985;SDS011;7067;51.832;8.296;2023-04-01T03:53:36;0.35;;;0.20;;
13985;SDS011;7067;51.832;8.296;2023-04-01T03:56:04;0.45;;;0.20;;
13985;SDS011;7067;51.832;8.296;2023-04-01T03:58:31;1.27;;;0.40;;
13985;SDS011;7067;51.832;8.296;2023-04-01T04:00:56;0.47;;;0.30;;
13985;SDS011;7067;51.832;8.296;2023-04-01T04:03:21;1.52;;;0.50;;
13985;SDS011;7067;51.832;8.296;2023-04-01T04:05:48;0.90;;;0.68;;
13985;SDS011;7067;51.832;8.296;2023-04-01T04:08:14;0.68;;;0.50;;
13985;SDS011;7067;51.832;8.296;2023-04-01T04:10:40;2.90;;;0.38;;
13985;SDS011;7067;51.832;8.296;2023-04-01T04:13:06;12.52;;;1.95;;
13985;SDS011;7067;51.832;8.296;2023-04-01T04:15:31;1.45;;;1.25;;
13985;SDS011;7067;51.832;8.296;2023-04-01T04:17:57;12.68;;;1.60;;
13985;SDS011;7067;51.832;8.296;2023-04-01T04:20:22;3.83;;;1.38;;
13985;SDS011;7067;51.832;8.296;2023-04-01T04:22:47;5.07;;;1.58;;
13985;SDS011;7067;51.832;8.296;2023-04-01T04:25:13;1.00;;;0.32;;
13985;SDS011;7067;51.832;8.296;2023-04-01T04:27:38;1.42;;;0.40;;
13985;SDS011;7067;51.832;8.296;2023-04-01T04:30:05;0.28;;;0.10;;
13985;SDS011;7067;51.832;8.296;2023-04-01T04:32:31;2.80;;;1.48;;
13985;SDS011;7067;51.832;8.296;2023-04-01T04:34:56;12.65;;;0.73;;
13985;SDS011;7067;51.832;8.296;2023-04-01T04:37:21;7.53;;;0.57;;
13985;SDS011;7067;51.832;8.296;2023-04-01T04:39:47;0.90;;;0.45;;
13985;SDS011;7067;51.832;8.296;2023-04-01T04:42:12;1.08;;;0.98;;
13985;SDS011;7067;51.832;8.296;2023-04-01T04:44:38;1.33;;;0.73;;
13985;SDS011;7067;51.832;8.296;2023-04-01T04:47:04;1.13;;;0.25;;
13985;SDS011;7067;51.832;8.296;2023-04-01T04:49:29;28.40;;;1.55;;
13985;SDS011;7067;51.832;8.296;2023-04-01T04:51:55;17.27;;;1.85;;
13985;SDS011;7067;51.832;8.296;2023-04-01T04:54:20;1.35;;;0.80;;
13985;SDS011;7067;51.832;8.296;2023-04-01T04:56:46;1.75;;;1.15;;
13985;SDS011;7067;51.832;8.296;2023-04-01T04:59:11;5.97;;;1.67;;
13985;SDS011;7067;51.832;8.296;2023-04-01T05:01:37;1.75;;;0.20;;
13985;SDS011;7067;51.832;8.296;2023-04-01T05:04:03;0.22;;;0.20;;
13985;SDS011;7067;51.832;8.296;2023-04-01T05:06:28;1.10;;;0.10;;
13985;SDS011;7067;51.832;8.296;2023-04-01T05:08:57;0.40;;;0.20;;
13985;SDS011;7067;51.832;8.296;2023-04-01T05:11:22;9.63;;;1.40;;
13985;SDS011;7067;51.832;8.296;2023-04-01T05:13:48;0.80;;;0.20;;
13985;SDS011;7067;51.832;8.296;2023-04-01T05:16:16;1.60;;;0.98;;
13985;SDS011;7067;51.832;8.296;2023-04-01T05:18:42;5.78;;;1.85;;
13985;SDS011;7067;51.832;8.296;2023-04-01T05:21:09;1.95;;;0.95;;
13985;SDS011;7067;51.832;8.296;2023-04-01T05:23:35;0.70;;;0.52;;
13985;SDS011;7067;51.832;8.296;2023-04-01T05:26:04;1.20;;;0.10;;
13985;SDS011;7067;51.832;8.296;2023-04-01T05:28:30;2.63;;;1.23;;
13985;SDS011;7067;51.832;8.296;2023-04-01T05:30:57;2.17;;;0.40;;
13985;SDS011;7067;51.832;8.296;2023-04-01T05:33:24;1.15;;;0.50;;
13985;SDS011;7067;51.832;8.296;2023-04-01T05:35:50;2.15;;;0.50;;
13985;SDS011;7067;51.832;8.296;2023-04-01T05:38:15;0.40;;;0.20;;
13985;SDS011;7067;51.832;8.296;2023-04-01T05:40:40;1.90;;;1.02;;
13985;SDS011;7067;51.832;8.296;2023-04-01T05:43:06;4.32;;;1.25;;
13985;SDS011;7067;51.832;8.296;2023-04-01T05:45:31;2.85;;;1.02;;
13985;SDS011;7067;51.832;8.296;2023-04-01T05:47:56;0.63;;;0.63;;
13985;SDS011;7067;51.832;8.296;2023-04-01T05:50:22;1.48;;;0.95;;
13985;SDS011;7067;51.832;8.296;2023-04-01T05:52:47;0.35;;;0.30;;
13985;SDS011;7067;51.832;8.296;2023-04-01T05:55:12;0.77;;;0.30;;
13985;SDS011;7067;51.832;8.296;2023-04-01T05:57:38;3.30;;;0.98;;
13985;SDS011;7067;51.832;8.296;2023-04-01T06:00:03;0.30;;;0.20;;
13985;SDS011;7067;51.832;8.296;2023-04-01T06:02:29;1.60;;;0.90;;
13985;SDS011;7067;51.832;8.296;2023-04-01T06:05:29;1.52;;;0.30;;
13985;SDS011;7067;51.832;8.296;2023-04-01T06:07:48;2.33;;;1.42;;
13985;SDS011;7067;51.832;8.296;2023-04-01T06:10:18;1.35;;;0.30;;
13985;SDS011;7067;51.832;8.296;2023-04-01T06:13:05;0.20;;;0.20;;
13985;SDS011;7067;51.832;8.296;2023-04-01T06:15:39;1.58;;;1.05;;
13985;SDS011;7067;51.832;8.296;2023-04-01T06:18:18;1.33;;;0.73;;
13985;SDS011;7067;51.832;8.296;2023-04-01T06:53:33;1.42;;;0.70;;
13985;SDS011;7067;51.832;8.296;2023-04-01T06:56:04;1.30;;;0.60;;
13985;SDS011;7067;51.832;8.296;2023-04-01T06:58:36;3.03;;;0.50;;
13985;SDS011;7067;51.832;8.296;2023-04-01T07:01:04;0.73;;;0.50;;
13985;SDS011;7067;51.832;8.296;2023-04-01T07:03:33;2.10;;;0.60;;
13985;SDS011;7067;51.832;8.296;2023-04-01T07:06:04;0.68;;;0.40;;
13985;SDS011;7067;51.832;8.296;2023-04-01T07:08:31;0.80;;;0.43;;
13985;SDS011;7067;51.832;8.296;2023-04-01T07:16:12;3.55;;;0.95;;
13985;SDS011;7067;51.832;8.296;2023-04-01T07:18:41;3.63;;;0.60;;
13985;SDS011;7067;51.832;8.296;2023-04-01T07:21:41;2.50;;;1.17;;
13985;SDS011;7067;51.832;8.296;2023-04-01T07:24:16;0.50;;;0.50;;
13985;SDS011;7067;51.832;8.296;2023-04-01T07:26:46;1.45;;;0.77;;
13985;SDS011;7067;51.832;8.296;2023-04-01T07:29:13;0.60;;;0.60;;
13985;SDS011;7067;51.832;8.296;2023-04-01T07:34:26;0.85;;;0.70;;
13985;SDS011;7067;51.832;8.296;2023-04-01T07:55:27;3.97;;;0.77;;
13985;SDS011;7067;51.832;8.296;2023-04-01T08:01:04;1.38;;;1.02;;
13985;SDS011;7067;51.832;8.296;2023-04-01T08:22:09;0.88;;;0.50;;
13985;SDS011;7067;51.832;8.296;2023-04-01T08:24:42;0.68;;;0.32;;
13985;SDS011;7067;51.832;8.296;2023-04-01T08:27:41;0.30;;;0.30;;
13985;SDS011;7067;51.832;8.296;2023-04-01T08:32:41;1.92;;;1.00;;
13985;SDS011;7067;51.832;8.296;2023-04-01T08:35:11;1.25;;;1.15;;
13985;SDS011;7067;51.832;8.296;2023-04-01T08:37:48;16.05;;;1.75;;
13985;SDS011;7067;51.832;8.296;2023-04-01T08:56:59;2.17;;;1.20;;
13985;SDS011;7067;51.832;8.296;2023-04-01T09:16:22;30.10;;;2.35;;
13985;SDS011;7067;51.832;8.296;2023-04-01T09:22:05;6.78;;;1.55;;
13985;SDS011;7067;51.832;8.296;2023-04-01T09:30:27;0.73;;;0.60;;
13985;SDS011;7067;51.832;8.296;2023-04-01T09:37:52;0.65;;;0.65;;
13985;SDS011;7067;51.832;8.296;2023-04-01T09:40:26;1.02;;;0.50;;
13985;SDS011;7067;51.832;8.296;2023-04-01T10:05:17;0.38;;;0.38;;
13985;SDS011;7067;51.832;8.296;2023-04-01T10:07:54;3.72;;;1.25;;
13985;SDS011;7067;51.832;8.296;2023-04-01T10:49:44;5.53;;;1.70;;
13985;SDS011;7067;51.832;8.296;2023-04-01T10:52:23;2.60;;;1.33;;
13985;SDS011;7067;51.832;8.296;2023-04-01T11:22:45;1.58;;;1.10;;
13985;SDS011;7067;51.832;8.296;2023-04-01T11:42:14;1.60;;;1.50;;
13985;SDS011;7067;51.832;8.296;2023-04-01T11:44:55;18.50;;;2.55;;
13985;SDS011;7067;51.832;8.296;2023-04-01T11:53:05;2.17;;;1.27;;
13985;SDS011;7067;51.832;8.296;2023-04-01T11:55:55;8.35;;;2.72;;
13985;SDS011;7067;51.832;8.296;2023-04-01T12:03:46;1.35;;;1.25;;
13985;SDS011;7067;51.832;8.296;2023-04-01T12:09:25;1.90;;;1.80;;
13985;SDS011;7067;51.832;8.296;2023-04-01T12:17:36;6.57;;;2.90;;
13985;SDS011;7067;51.832;8.296;2023-04-01T12:20:13;5.20;;;3.03;;
13985;SDS011;7067;51.832;8.296;2023-04-01T12:23:07;3.03;;;2.83;;
13985;SDS011;7067;51.832;8.296;2023-04-01T12:34:04;2.25;;;2.10;;
13985;SDS011;7067;51.832;8.296;2023-04-01T12:44:38;2.90;;;2.80;;
13985;SDS011;7067;51.832;8.296;2023-04-01T12:50:14;16.00;;;3.10;;
13985;SDS011;7067;51.832;8.296;2023-04-01T12:55:43;2.35;;;2.25;;
13985;SDS011;7067;51.832;8.296;2023-04-01T13:14:18;3.58;;;3.38;;
13985;SDS011;7067;51.832;8.296;2023-04-01T13:19:58;3.13;;;2.92;;
13985;SDS011;7067;51.832;8.296;2023-04-01T13:25:27;2.97;;;2.60;;
13985;SDS011;7067;51.832;8.296;2023-04-01T13:27:59;3.38;;;3.17;;
13985;SDS011;7067;51.832;8.296;2023-04-01T13:30:30;3.72;;;3.53;;
13985;SDS011;7067;51.832;8.296;2023-04-01T13:33:44;3.40;;;3.20;;
13985;SDS011;7067;51.832;8.296;2023-04-01T13:39:02;3.50;;;3.30;;
13985;SDS011;7067;51.832;8.296;2023-04-01T14:00:27;2.47;;;2.38;;
13985;SDS011;7067;51.832;8.296;2023-04-01T14:06:09;1.50;;;1.10;;
13985;SDS011;7067;51.832;8.296;2023-04-01T14:30:30;2.38;;;2.28;;
13985;SDS011;7067;51.832;8.296;2023-04-01T14:33:05;2.40;;;2.30;;
13985;SDS011;7067;51.832;8.296;2023-04-01T14:35:42;3.03;;;2.10;;
13985;SDS011;7067;51.832;8.296;2023-04-01T14:54:36;4.70;;;3.03;;
13985;SDS011;7067;51.832;8.296;2023-04-01T14:57:15;3.78;;;3.08;;
13985;SDS011;7067;51.832;8.296;2023-04-01T14:59:53;2.47;;;2.38;;
13985;SDS011;7067;51.832;8.296;2023-04-01T15:02:37;3.55;;;3.22;;
13985;SDS011;7067;51.832;8.296;2023-04-01T15:05:06;2.53;;;2.38;;
13985;SDS011;7067;51.832;8.296;2023-04-01T15:21:16;2.88;;;2.78;;
13985;SDS011;7067;51.832;8.296;2023-04-01T15:37:37;1.75;;;1.65;;
13985;SDS011;7067;51.832;8.296;2023-04-01T15:43:51;1.88;;;1.77;;
13985;SDS011;7067;51.832;8.296;2023-04-01T16:03:13;3.20;;;3.00;;
13985;SDS011;7067;51.832;8.296;2023-04-01T16:20:01;5.93;;;5.57;;
13985;SDS011;7067;51.832;8.296;2023-04-01T16:22:58;5.60;;;5.28;;
13985;SDS011;7067;51.832;8.296;2023-04-01T16:25:33;6.88;;;6.13;;
13985;SDS011;7067;51.832;8.296;2023-04-01T16:28:15;6.60;;;6.10;;
13985;SDS011;7067;51.832;8.296;2023-04-01T16:30:58;14.90;;;8.68;;
13985;SDS011;7067;51.832;8.296;2023-04-01T16:36:13;6.75;;;6.35;;
13985;SDS011;7067;51.832;8.296;2023-04-01T16:39:06;7.75;;;7.00;;
13985;SDS011;7067;51.832;8.296;2023-04-01T16:45:15;6.82;;;6.32;;
13985;SDS011;7067;51.832;8.296;2023-04-01T16:47:53;6.05;;;5.65;;
13985;SDS011;7067;51.832;8.296;2023-04-01T16:53:48;7.28;;;6.60;;
13985;SDS011;7067;51.832;8.296;2023-04-01T17:07:24;8.05;;;7.22;;
13985;SDS011;7067;51.832;8.296;2023-04-01T17:20:54;22.37;;;19.97;;
13985;SDS011;7067;51.832;8.296;2023-04-01T17:23:27;21.98;;;17.75;;
13985;SDS011;7067;51.832;8.296;2023-04-01T17:26:06;19.52;;;17.58;;
13985;SDS011;7067;51.832;8.296;2023-04-01T17:29:03;19.85;;;17.75;;
13985;SDS011;7067;51.832;8.296;2023-04-01T17:32:13;18.08;;;16.20;;
13985;SDS011;7067;51.832;8.296;2023-04-01T17:37:28;29.38;;;25.50;;
13985;SDS011;7067;51.832;8.296;2023-04-01T17:52:54;12.02;;;10.95;;
13985;SDS011;7067;51.832;8.296;2023-04-01T17:58:18;14.33;;;12.00;;
13985;SDS011;7067;51.832;8.296;2023-04-01T18:03:51;22.55;;;12.93;;
13985;SDS011;7067;51.832;8.296;2023-04-01T18:22:24;28.05;;;14.75;;
13985;SDS011;7067;51.832;8.296;2023-04-01T18:24:56;14.60;;;13.35;;
13985;SDS011;7067;51.832;8.296;2023-04-01T18:27:39;11.68;;;10.90;;
13985;SDS011;7067;51.832;8.296;2023-04-01T18:30:26;18.10;;;12.77;;
13985;SDS011;7067;51.832;8.296;2023-04-01T18:33:01;11.60;;;10.60;;
13985;SDS011;7067;51.832;8.296;2023-04-01T18:38:13;12.25;;;11.45;;
13985;SDS011;7067;51.832;8.296;2023-04-01T18:40:48;13.20;;;11.88;;
13985;SDS011;7067;51.832;8.296;2023-04-01T18:43:32;10.35;;;9.70;;
13985;SDS011;7067;51.832;8.296;2023-04-01T18:48:33;6.40;;;5.82;;
13985;SDS011;7067;51.832;8.296;2023-04-01T18:51:17;4.28;;;3.97;;
13985;SDS011;7067;51.832;8.296;2023-04-01T18:53:46;4.13;;;3.25;;
13985;SDS011;7067;51.832;8.296;2023-04-01T18:58:54;7.80;;;2.05;;
13985;SDS011;7067;51.832;8.296;2023-04-01T19:01:26;1.88;;;1.77;;
13985;SDS011;7067;51.832;8.296;2023-04-01T19:04:00;2.20;;;2.10;;
13985;SDS011;7067;51.832;8.296;2023-04-01T19:06:41;2.83;;;2.30;;
13985;SDS011;7067;51.832;8.296;2023-04-01T19:09:31;2.63;;;2.43;;
13985;SDS011;7067;51.832;8.296;2023-04-01T19:15:04;2.40;;;2.30;;
13985;SDS011;7067;51.832;8.296;2023-04-01T19:20:38;3.20;;;2.95;;
13985;SDS011;7067;51.832;8.296;2023-04-01T19:26:03;2.95;;;2.38;;
13985;SDS011;7067;51.832;8.296;2023-04-01T19:31:11;35.03;;;3.92;;
13985;SDS011;7067;51.832;8.296;2023-04-01T19:34:13;2.33;;;1.92;;
13985;SDS011;7067;51.832;8.296;2023-04-01T19:42:43;1.25;;;1.17;;
13985;SDS011;7067;51.832;8.296;2023-04-01T19:51:08;3.53;;;1.65;;
13985;SDS011;7067;51.832;8.296;2023-04-01T19:53:52;1.60;;;1.50;;
13985;SDS011;7067;51.832;8.296;2023-04-01T19:56:47;1.88;;;1.70;;
13985;SDS011;7067;51.832;8.296;2023-04-01T20:04:38;10.00;;;1.40;;
13985;SDS011;7067;51.832;8.296;2023-04-01T20:07:28;5.05;;;1.50;;
13985;SDS011;7067;51.832;8.296;2023-04-01T20:15:22;3.90;;;1.35;;
13985;SDS011;7067;51.832;8.296;2023-04-01T20:17:54;4.32;;;1.52;;
13985;SDS011;7067;51.832;8.296;2023-04-01T20:20:23;1.90;;;0.68;;
13985;SDS011;7067;51.832;8.296;2023-04-01T20:25:26;0.80;;;0.80;;
13985;SDS011;7067;51.832;8.296;2023-04-01T20:44:11;1.00;;;0.68;;
13985;SDS011;7067;51.832;8.296;2023-04-01T20:52:08;0.82;;;0.82;;
13985;SDS011;7067;51.832;8.296;2023-04-01T20:54:56;0.60;;;0.60;;
13985;SDS011;7067;51.832;8.296;2023-04-01T20:57:38;1.00;;;1.00;;
13985;SDS011;7067;51.832;8.296;2023-04-01T21:03:23;1.48;;;1.38;;
13985;SDS011;7067;51.832;8.296;2023-04-01T21:26:02;1.80;;;0.82;;
13985;SDS011;7067;51.832;8.296;2023-04-01T21:34:43;7.05;;;2.00;;
13985;SDS011;7067;51.832;8.296;2023-04-01T21:37:20;4.70;;;1.88;;
13985;SDS011;7067;51.832;8.296;2023-04-01T21:47:47;1.00;;;1.00;;
13985;SDS011;7067;51.832;8.296;2023-04-01T22:07:16;1.75;;;1.30;;
13985;SDS011;7067;51.832;8.296;2023-04-01T22:12:44;8.32;;;2.45;;
13985;SDS011;7067;51.832;8.296;2023-04-01T22:15:27;4.43;;;1.80;;
13985;SDS011;7067;51.832;8.296;2023-04-01T22:18:11;1.73;;;1.63;;
13985;SDS011;7067;51.832;8.296;2023-04-01T22:20:51;8.95;;;1.77;;
13985;SDS011;7067;51.832;8.296;2023-04-01T22:23:32;2.55;;;2.08;;
13985;SDS011;7067;51.832;8.296;2023-04-01T22:29:06;1.63;;;1.52;;
13985;SDS011;7067;51.832;8.296;2023-04-01T22:31:44;8.30;;;1.98;;
13985;SDS011;7067;51.832;8.296;2023-04-01T22:37:08;1.92;;;1.83;;
13985;SDS011;7067;51.832;8.296;2023-04-01T22:50:18;2.20;;;1.75;;
13985;SDS011;7067;51.832;8.296;2023-04-01T22:52:50;5.55;;;2.40;;
13985;SDS011;7067;51.832;8.296;2023-04-01T22:55:28;1.70;;;1.60;;
13985;SDS011;7067;51.832;8.296;2023-04-01T23:00:47;25.27;;;2.78;;
13985;SDS011;7067;51.832;8.296;2023-04-01T23:03:17;2.17;;;1.55;;
13985;SDS011;7067;51.832;8.296;2023-04-01T23:10:58;5.28;;;2.90;;
13985;SDS011;7067;51.832;8.296;2023-04-01T23:13:38;1.80;;;1.70;;
13985;SDS011;7067;51.832;8.296;2023-04-01T23:16:07;1.88;;;1.77;;
13985;SDS011;7067;51.832;8.296;2023-04-01T23:18:50;8.90;;;2.60;;
13985;SDS011;7067;51.832;8.296;2023-04-01T23:26:50;1.83;;;1.73;;
13985;SDS011;7067;51.832;8.296;2023-04-01T23:29:20;1.90;;;1.80;;
13985;SDS011;7067;51.832;8.296;2023-04-01T23:32:02;2.03;;;1.92;;
13985;SDS011;7067;51.832;8.296;2023-04-01T23:34:31;2.70;;;2.50;;
13985;SDS011;7067;51.832;8.296;2023-04-01T23:37:00;2.30;;;2.20;;
13985;SDS011;7067;51.832;8.296;2023-04-01T23:39:41;4.93;;;4.53;;
13985;SDS011;7067;51.832;8.296;2023-04-01T23:42:15;12.80;;;3.83;;
13985;SDS011;7067;51.832;8.296;2023-04-01T23:44:48;16.20;;;3.97;;
13985;SDS011;7067;51.832;8.296;2023-04-01T23:47:18;2.50;;;1.83;;
13985;SDS011;7067;51.832;8.296;2023-04-01T23:49:47;8.23;;;2.55;;
13985;SDS011;7067;51.832;8.296;2023-04-01T23:55:00;8.07;;;2.65;;
13985;SDS011;7067;51.832;8.296;2023-04-01T23:57:34;15.10;;;4.15;;
